createdAt,value
2019-05-16T00:00:24.874Z,0.00
2019-05-16T00:01:24.865Z,0.00
2019-05-16T00:02:24.853Z,0.00
2019-05-16T00:03:24.857Z,0.00
2019-05-16T00:04:24.851Z,0.00
2019-05-16T00:05:24.821Z,0.00
2019-05-16T00:06:24.807Z,0.00
2019-05-16T00:07:24.799Z,0.00
2019-05-16T00:08:24.787Z,0.00
2019-05-16T00:09:24.811Z,0.00
2019-05-16T00:10:24.770Z,0.00
2019-05-16T00:11:24.753Z,0.00
2019-05-16T00:12:24.743Z,0.00
2019-05-16T00:13:24.740Z,0.00
2019-05-16T00:14:24.738Z,0.00
2019-05-16T00:15:24.744Z,0.00
2019-05-16T00:16:24.736Z,0.00
2019-05-16T00:17:24.690Z,0.00
2019-05-16T00:18:24.680Z,0.00
2019-05-16T00:19:24.680Z,0.00
2019-05-16T00:20:24.654Z,0.00
2019-05-16T00:21:24.643Z,0.00
2019-05-16T00:22:24.638Z,0.00
2019-05-16T00:23:24.625Z,0.00
2019-05-16T00:24:24.626Z,0.00
2019-05-16T00:25:24.598Z,0.00
2019-05-16T00:26:24.592Z,0.00
2019-05-16T00:27:24.574Z,0.00
2019-05-16T00:28:24.563Z,0.00
2019-05-16T00:29:24.864Z,0.00
2019-05-16T00:30:24.548Z,0.00
2019-05-16T00:31:24.537Z,0.00
2019-05-16T00:32:24.518Z,0.00
2019-05-16T00:33:24.508Z,0.00
2019-05-16T00:34:24.504Z,0.00
2019-05-16T00:35:24.512Z,0.00
2019-05-16T00:36:24.482Z,0.00
2019-05-16T00:37:24.468Z,0.00
2019-05-16T00:38:24.452Z,0.00
2019-05-16T00:39:24.459Z,0.00
2019-05-16T00:40:24.448Z,0.00
2019-05-16T00:41:24.422Z,0.00
2019-05-16T00:42:24.442Z,0.00
2019-05-16T00:43:24.408Z,0.00
2019-05-16T00:44:24.411Z,0.00
2019-05-16T00:45:24.404Z,0.00
2019-05-16T00:46:24.372Z,0.00
2019-05-16T00:47:24.354Z,0.00
2019-05-16T00:48:24.342Z,0.00
2019-05-16T00:49:24.336Z,0.00
2019-05-16T00:50:24.335Z,0.00
2019-05-16T00:51:24.319Z,0.00
2019-05-16T00:52:24.298Z,0.00
2019-05-16T00:53:24.290Z,0.00
2019-05-16T00:54:24.285Z,0.00
2019-05-16T00:55:24.282Z,0.00
2019-05-16T00:56:24.258Z,0.00
2019-05-16T00:57:24.249Z,0.00
2019-05-16T00:58:24.270Z,0.00
2019-05-16T00:59:24.230Z,0.00
2019-05-16T01:00:24.226Z,0.00
2019-05-16T01:01:24.205Z,0.00
2019-05-16T01:02:24.187Z,0.00
2019-05-16T01:03:24.175Z,0.00
2019-05-16T01:04:24.169Z,0.00
2019-05-16T01:05:24.181Z,0.00
2019-05-16T01:06:24.148Z,0.00
2019-05-16T01:07:24.175Z,0.00
2019-05-16T01:08:24.122Z,0.00
2019-05-16T01:09:24.112Z,0.00
2019-05-16T01:10:24.113Z,0.00
2019-05-16T01:11:24.093Z,0.00
2019-05-16T01:12:24.079Z,0.00
2019-05-16T01:13:24.089Z,0.00
2019-05-16T01:14:24.053Z,0.00
2019-05-16T01:15:24.065Z,0.00
2019-05-16T01:16:24.031Z,0.00
2019-05-16T01:17:24.027Z,0.00
2019-05-16T01:18:24.014Z,0.00
2019-05-16T01:19:24.013Z,0.00
2019-05-16T01:20:23.999Z,0.00
2019-05-16T01:21:24.011Z,0.00
2019-05-16T01:22:23.963Z,0.00
2019-05-16T01:23:23.955Z,0.00
2019-05-16T01:24:23.949Z,0.00
2019-05-16T01:25:23.949Z,0.00
2019-05-16T01:26:23.946Z,0.00
2019-05-16T01:27:23.913Z,0.00
2019-05-16T01:28:23.899Z,0.00
2019-05-16T01:29:23.889Z,0.00
2019-05-16T01:30:23.897Z,0.00
2019-05-16T01:31:23.879Z,0.00
2019-05-16T01:32:23.905Z,0.00
2019-05-16T01:33:23.845Z,0.00
2019-05-16T01:34:23.833Z,0.00
2019-05-16T01:35:23.843Z,0.00
2019-05-16T01:36:36.108Z,0.00
2019-05-16T01:37:24.795Z,0.00
2019-05-16T01:38:23.794Z,0.00
2019-05-16T01:39:23.816Z,0.00
2019-05-16T01:40:23.783Z,0.00
2019-05-16T01:41:23.772Z,0.00
2019-05-16T01:42:23.744Z,0.00
2019-05-16T01:43:23.732Z,0.00
2019-05-16T01:44:23.722Z,0.00
2019-05-16T01:45:23.778Z,0.00
2019-05-16T01:46:23.702Z,0.00
2019-05-16T01:47:23.692Z,0.00
2019-05-16T01:48:23.687Z,0.00
2019-05-16T01:49:23.665Z,0.00
2019-05-16T01:50:23.672Z,0.00
2019-05-16T01:51:23.673Z,0.00
2019-05-16T01:52:23.652Z,0.00
2019-05-16T01:53:23.624Z,0.00
2019-05-16T01:54:23.612Z,0.00
2019-05-16T01:55:23.632Z,0.00
2019-05-16T01:56:23.586Z,0.00
2019-05-16T01:57:23.592Z,0.00
2019-05-16T01:58:23.564Z,0.00
2019-05-16T01:59:23.555Z,0.00
2019-05-16T02:00:25.859Z,0.00
2019-05-16T02:01:24.545Z,0.00
2019-05-16T02:02:23.520Z,0.00
2019-05-16T02:03:23.520Z,0.00
2019-05-16T02:04:23.498Z,0.00
2019-05-16T02:05:23.488Z,0.00
2019-05-16T02:06:23.496Z,0.00
2019-05-16T02:07:23.468Z,0.00
2019-05-16T02:08:23.462Z,0.00
2019-05-16T02:09:23.443Z,0.00
2019-05-16T02:10:23.457Z,0.00
2019-05-16T02:11:23.449Z,0.00
2019-05-16T02:12:23.428Z,0.00
2019-05-16T02:13:23.456Z,0.00
2019-05-16T02:14:23.390Z,0.00
2019-05-16T02:15:23.378Z,0.00
2019-05-16T02:16:23.375Z,0.00
2019-05-16T02:17:23.356Z,0.00
2019-05-16T02:18:23.359Z,0.00
2019-05-16T02:19:23.331Z,0.00
2019-05-16T02:20:23.331Z,0.00
2019-05-16T02:21:23.329Z,0.00
2019-05-16T02:22:23.297Z,0.00
2019-05-16T02:23:23.288Z,0.00
2019-05-16T02:24:23.333Z,0.00
2019-05-16T02:25:23.269Z,0.00
2019-05-16T02:26:23.272Z,0.00
2019-05-16T02:27:23.246Z,0.00
2019-05-16T02:28:29.554Z,0.00
2019-05-16T02:29:24.251Z,0.00
2019-05-16T02:30:23.249Z,0.00
2019-05-16T02:31:23.218Z,0.00
2019-05-16T02:32:23.192Z,0.00
2019-05-16T02:33:23.177Z,0.00
2019-05-16T02:34:23.161Z,0.00
2019-05-16T02:35:23.160Z,0.00
2019-05-16T02:36:23.182Z,0.00
2019-05-16T02:37:29.157Z,0.00
2019-05-16T02:38:24.123Z,0.00
2019-05-16T02:39:23.135Z,0.00
2019-05-16T02:40:23.100Z,0.00
2019-05-16T02:41:23.097Z,0.00
2019-05-16T02:42:23.091Z,0.00
2019-05-16T02:43:26.176Z,0.00
2019-05-16T02:44:24.545Z,0.00
2019-05-16T02:45:24.479Z,0.00
2019-05-16T02:46:23.049Z,0.00
2019-05-16T02:47:23.021Z,0.00
2019-05-16T02:48:23.031Z,0.00
2019-05-16T02:49:23.011Z,0.00
2019-05-16T02:50:23.042Z,0.00
2019-05-16T02:51:23.004Z,0.00
2019-05-16T02:52:22.978Z,0.00
2019-05-16T02:53:22.957Z,0.00
2019-05-16T02:54:22.945Z,0.00
2019-05-16T02:55:22.963Z,0.00
2019-05-16T02:56:22.949Z,0.00
2019-05-16T02:57:22.911Z,0.00
2019-05-16T02:58:23.762Z,0.00
2019-05-16T02:59:22.887Z,0.00
2019-05-16T03:00:22.879Z,0.00
2019-05-16T03:01:22.887Z,0.00
2019-05-16T03:02:22.923Z,0.00
2019-05-16T03:03:22.844Z,0.00
2019-05-16T03:04:22.835Z,0.00
2019-05-16T03:05:22.841Z,0.00
2019-05-16T03:06:22.809Z,0.00
2019-05-16T03:07:36.777Z,0.00
2019-05-16T03:08:23.794Z,0.00
2019-05-16T03:09:22.793Z,0.00
2019-05-16T03:10:22.767Z,0.00
2019-05-16T03:11:22.774Z,0.00
2019-05-16T03:12:22.762Z,0.00
2019-05-16T03:13:22.732Z,0.00
2019-05-16T03:14:22.721Z,5.62
2019-05-16T03:15:22.708Z,5.62
2019-05-16T03:16:22.704Z,5.62
2019-05-16T03:17:22.728Z,11.25
2019-05-16T03:18:22.684Z,11.25
2019-05-16T03:19:22.674Z,16.88
2019-05-16T03:20:22.658Z,16.88
2019-05-16T03:21:22.649Z,16.88
2019-05-16T03:22:22.667Z,16.88
2019-05-16T03:23:22.628Z,16.88
2019-05-16T03:24:22.610Z,16.88
2019-05-16T03:25:22.617Z,16.88
2019-05-16T03:26:22.595Z,16.88
2019-05-16T03:27:22.574Z,16.88
2019-05-16T03:28:22.607Z,16.88
2019-05-16T03:29:22.564Z,16.88
2019-05-16T03:30:24.019Z,16.88
2019-05-16T03:31:24.698Z,16.88
2019-05-16T03:32:24.345Z,16.88
2019-05-16T03:33:30.879Z,16.88
2019-05-16T03:34:25.900Z,16.88
2019-05-16T03:35:24.495Z,22.50
2019-05-16T03:36:25.185Z,22.50
2019-05-16T03:37:24.878Z,28.12
2019-05-16T03:38:22.491Z,28.12
2019-05-16T03:39:22.448Z,33.75
2019-05-16T03:40:22.433Z,33.75
2019-05-16T03:41:22.423Z,33.75
2019-05-16T03:42:22.410Z,33.75
2019-05-16T03:43:22.444Z,33.75
2019-05-16T03:44:22.385Z,28.12
2019-05-16T03:45:22.385Z,28.12
2019-05-16T03:46:22.383Z,28.12
2019-05-16T03:47:22.356Z,28.12
2019-05-16T03:48:22.365Z,28.12
2019-05-16T03:49:22.334Z,28.12
2019-05-16T03:50:22.341Z,28.12
2019-05-16T03:51:22.331Z,22.50
2019-05-16T03:52:22.315Z,28.12
2019-05-16T03:53:22.304Z,28.12
2019-05-16T03:54:22.277Z,28.12
2019-05-16T03:55:22.271Z,28.12
2019-05-16T03:56:22.271Z,33.75
2019-05-16T03:57:22.251Z,33.75
2019-05-16T03:58:22.822Z,33.75
2019-05-16T03:59:22.275Z,33.75
2019-05-16T04:00:22.216Z,33.75
2019-05-16T04:01:22.203Z,33.75
2019-05-16T04:02:22.186Z,33.75
2019-05-16T04:03:22.209Z,33.75
2019-05-16T04:04:22.171Z,39.38
2019-05-16T04:05:22.154Z,39.38
2019-05-16T04:06:22.392Z,45.00
2019-05-16T04:07:22.155Z,50.62
2019-05-16T04:08:25.006Z,50.62
2019-05-16T04:09:22.111Z,50.62
2019-05-16T04:10:22.112Z,56.25
2019-05-16T04:11:23.270Z,50.62
2019-05-16T04:12:22.080Z,56.25
2019-05-16T04:13:22.427Z,56.25
2019-05-16T04:14:22.090Z,56.25
2019-05-16T04:15:22.043Z,50.62
2019-05-16T04:16:22.032Z,56.25
2019-05-16T04:17:22.022Z,45.00
2019-05-16T04:18:22.586Z,45.00
2019-05-16T04:19:22.015Z,39.38
2019-05-16T04:20:21.992Z,45.00
2019-05-16T04:21:22.277Z,45.00
2019-05-16T04:22:21.969Z,39.38
2019-05-16T04:23:22.059Z,45.00
2019-05-16T04:24:21.975Z,45.00
2019-05-16T04:25:21.931Z,39.38
2019-05-16T04:26:22.117Z,45.00
2019-05-16T04:27:21.912Z,39.38
2019-05-16T04:28:22.569Z,33.75
2019-05-16T04:29:21.891Z,39.38
2019-05-16T04:30:22.224Z,39.38
2019-05-16T04:31:22.264Z,45.00
2019-05-16T04:32:21.863Z,39.38
2019-05-16T04:33:22.591Z,45.00
2019-05-16T04:34:21.869Z,45.00
2019-05-16T04:35:21.824Z,39.38
2019-05-16T04:36:21.816Z,45.00
2019-05-16T04:37:26.026Z,39.38
2019-05-16T04:38:34.948Z,33.75
2019-05-16T04:39:22.793Z,45.00
2019-05-16T04:40:22.150Z,45.00
2019-05-16T04:41:21.784Z,50.62
2019-05-16T04:42:21.752Z,56.25
2019-05-16T04:43:22.606Z,56.25
2019-05-16T04:44:21.746Z,67.50
2019-05-16T04:45:21.714Z,61.88
2019-05-16T04:46:21.813Z,73.12
2019-05-16T04:47:21.731Z,67.50
2019-05-16T04:48:22.764Z,73.12
2019-05-16T04:49:21.692Z,61.88
2019-05-16T04:50:21.673Z,56.25
2019-05-16T04:51:22.172Z,61.88
2019-05-16T04:52:21.988Z,56.25
2019-05-16T04:53:21.993Z,56.25
2019-05-16T04:54:21.880Z,56.25
2019-05-16T04:55:21.608Z,56.25
2019-05-16T04:56:22.034Z,56.25
2019-05-16T04:57:21.589Z,56.25
2019-05-16T04:58:23.819Z,50.62
2019-05-16T04:59:21.576Z,56.25
2019-05-16T05:00:21.610Z,56.25
2019-05-16T05:01:21.848Z,61.88
2019-05-16T05:02:21.566Z,67.50
2019-05-16T05:03:21.534Z,67.50
2019-05-16T05:04:21.603Z,67.50
2019-05-16T05:05:21.785Z,61.88
2019-05-16T05:06:21.502Z,61.88
2019-05-16T05:07:21.484Z,61.88
2019-05-16T05:08:22.495Z,67.50
2019-05-16T05:09:21.471Z,67.50
2019-05-16T05:10:21.451Z,67.50
2019-05-16T05:11:21.811Z,73.12
2019-05-16T05:12:21.453Z,73.12
2019-05-16T05:13:22.531Z,78.75
2019-05-16T05:14:21.418Z,78.75
2019-05-16T05:15:21.531Z,78.75
2019-05-16T05:16:21.397Z,90.00
2019-05-16T05:17:21.375Z,95.62
2019-05-16T05:18:21.799Z,95.62
2019-05-16T05:19:21.357Z,95.62
2019-05-16T05:20:21.351Z,95.62
2019-05-16T05:21:21.326Z,95.62
2019-05-16T05:22:21.323Z,95.62
2019-05-16T05:23:21.431Z,90.00
2019-05-16T05:24:21.402Z,101.25
2019-05-16T05:25:21.283Z,95.62
2019-05-16T05:26:21.299Z,90.00
2019-05-16T05:27:21.257Z,95.62
2019-05-16T05:28:21.544Z,106.88
2019-05-16T05:29:21.251Z,106.88
2019-05-16T05:30:21.233Z,118.12
2019-05-16T05:31:24.709Z,118.12
2019-05-16T05:32:21.209Z,135.00
2019-05-16T05:33:21.467Z,135.00
2019-05-16T05:34:21.203Z,135.00
2019-05-16T05:35:21.181Z,123.75
2019-05-16T05:36:21.299Z,129.38
2019-05-16T05:37:21.154Z,135.00
2019-05-16T05:38:21.724Z,135.00
2019-05-16T05:39:21.144Z,140.62
2019-05-16T05:40:21.139Z,135.00
2019-05-16T05:41:21.116Z,140.62
2019-05-16T05:42:21.101Z,140.62
2019-05-16T05:43:21.732Z,129.38
2019-05-16T05:44:21.097Z,129.38
2019-05-16T05:45:21.079Z,135.00
2019-05-16T05:46:21.070Z,135.00
2019-05-16T05:47:21.055Z,157.50
2019-05-16T05:48:21.897Z,146.25
2019-05-16T05:49:21.042Z,140.62
2019-05-16T05:50:21.013Z,163.12
2019-05-16T05:51:21.009Z,174.38
2019-05-16T05:52:21.014Z,213.75
2019-05-16T05:53:21.297Z,208.12
2019-05-16T05:54:21.011Z,219.38
2019-05-16T05:55:20.960Z,208.12
2019-05-16T05:56:20.950Z,202.50
2019-05-16T05:57:21.032Z,208.12
2019-05-16T05:58:21.085Z,185.62
2019-05-16T05:59:20.931Z,180.00
2019-05-16T06:00:21.261Z,185.62
2019-05-16T06:01:20.931Z,174.38
2019-05-16T06:02:20.889Z,180.00
2019-05-16T06:03:22.398Z,168.75
2019-05-16T06:04:20.879Z,163.12
2019-05-16T06:05:20.850Z,168.75
2019-05-16T06:06:21.248Z,180.00
2019-05-16T06:07:20.830Z,180.00
2019-05-16T06:08:20.818Z,180.00
2019-05-16T06:09:28.310Z,185.62
2019-05-16T06:10:21.820Z,196.88
2019-05-16T06:11:20.787Z,196.88
2019-05-16T06:12:21.397Z,225.00
2019-05-16T06:13:21.150Z,219.38
2019-05-16T06:14:21.405Z,270.00
2019-05-16T06:15:20.744Z,315.00
2019-05-16T06:16:20.752Z,286.88
2019-05-16T06:17:20.762Z,270.00
2019-05-16T06:18:20.724Z,253.12
2019-05-16T06:19:20.749Z,219.38
2019-05-16T06:20:20.697Z,174.38
2019-05-16T06:21:20.684Z,180.00
2019-05-16T06:22:20.694Z,174.38
2019-05-16T06:23:21.124Z,180.00
2019-05-16T06:24:20.677Z,219.38
2019-05-16T06:25:22.895Z,219.38
2019-05-16T06:26:20.742Z,258.75
2019-05-16T06:27:21.060Z,264.38
2019-05-16T06:28:21.253Z,258.75
2019-05-16T06:29:20.626Z,230.62
2019-05-16T06:30:21.293Z,241.88
2019-05-16T06:31:22.169Z,236.25
2019-05-16T06:32:20.577Z,247.50
2019-05-16T06:33:20.565Z,303.75
2019-05-16T06:34:21.061Z,343.12
2019-05-16T06:35:23.945Z,360.00
2019-05-16T06:36:20.637Z,405.00
2019-05-16T06:37:20.699Z,433.12
2019-05-16T06:38:21.232Z,382.50
2019-05-16T06:39:20.477Z,444.38
2019-05-16T06:40:20.477Z,399.38
2019-05-16T06:41:20.455Z,382.50
2019-05-16T06:42:20.704Z,405.00
2019-05-16T06:43:20.782Z,382.50
2019-05-16T06:44:20.454Z,371.25
2019-05-16T06:45:20.673Z,337.50
2019-05-16T06:46:20.408Z,337.50
2019-05-16T06:47:22.981Z,286.88
2019-05-16T06:48:21.269Z,264.38
2019-05-16T06:49:20.368Z,264.38
2019-05-16T06:50:20.958Z,286.88
2019-05-16T06:51:20.341Z,264.38
2019-05-16T06:52:20.362Z,219.38
2019-05-16T06:53:20.907Z,230.62
2019-05-16T06:54:20.812Z,236.25
2019-05-16T06:55:20.619Z,202.50
2019-05-16T06:56:20.305Z,196.88
2019-05-16T06:57:20.704Z,208.12
2019-05-16T06:58:22.193Z,241.88
2019-05-16T06:59:20.387Z,230.62
2019-05-16T07:00:20.985Z,241.88
2019-05-16T07:01:20.817Z,258.75
2019-05-16T07:02:30.430Z,275.62
2019-05-16T07:03:21.214Z,292.50
2019-05-16T07:04:20.258Z,303.75
2019-05-16T07:05:20.941Z,331.88
2019-05-16T07:06:45.668Z,337.50
2019-05-16T07:07:21.171Z,343.12
2019-05-16T07:08:20.833Z,393.75
2019-05-16T07:09:20.689Z,405.00
2019-05-16T07:10:20.478Z,410.62
2019-05-16T07:11:20.317Z,354.38
2019-05-16T07:12:20.345Z,337.50
2019-05-16T07:13:20.116Z,337.50
2019-05-16T07:14:22.877Z,365.62
2019-05-16T07:15:20.725Z,360.00
2019-05-16T07:16:20.703Z,337.50
2019-05-16T07:17:20.342Z,309.38
2019-05-16T07:18:21.423Z,303.75
2019-05-16T07:19:20.771Z,292.50
2019-05-16T07:20:20.970Z,270.00
2019-05-16T07:21:20.374Z,258.75
2019-05-16T07:22:20.641Z,281.25
2019-05-16T07:23:21.050Z,303.75
2019-05-16T07:24:19.984Z,298.12
2019-05-16T07:25:20.803Z,286.88
2019-05-16T07:26:20.499Z,298.12
2019-05-16T07:27:21.846Z,286.88
2019-05-16T07:28:20.955Z,286.88
2019-05-16T07:29:20.353Z,270.00
2019-05-16T07:30:20.091Z,275.62
2019-05-16T07:31:22.440Z,270.00
2019-05-16T07:32:20.026Z,275.62
2019-05-16T07:33:21.175Z,286.88
2019-05-16T07:34:20.655Z,286.88
2019-05-16T07:35:20.519Z,270.00
2019-05-16T07:36:20.865Z,270.00
2019-05-16T07:37:20.192Z,281.25
2019-05-16T07:38:20.525Z,320.62
2019-05-16T07:39:20.097Z,298.12
2019-05-16T07:40:26.426Z,264.38
2019-05-16T07:41:20.839Z,247.50
2019-05-16T07:42:20.141Z,219.38
2019-05-16T07:43:20.538Z,253.12
2019-05-16T07:44:20.860Z,292.50
2019-05-16T07:45:20.381Z,315.00
2019-05-16T07:46:20.633Z,382.50
2019-05-16T07:47:20.302Z,405.00
2019-05-16T07:48:21.493Z,410.62
2019-05-16T07:49:19.830Z,354.38
2019-05-16T07:50:20.338Z,309.38
2019-05-16T07:51:20.567Z,315.00
2019-05-16T07:52:20.853Z,315.00
2019-05-16T07:53:21.386Z,292.50
2019-05-16T07:54:21.415Z,331.88
2019-05-16T07:55:20.803Z,320.62
2019-05-16T07:56:20.358Z,281.25
2019-05-16T07:57:22.663Z,247.50
2019-05-16T07:58:21.680Z,247.50
2019-05-16T07:59:20.457Z,230.62
2019-05-16T08:00:21.536Z,247.50
2019-05-16T08:01:20.095Z,219.38
2019-05-16T08:02:20.805Z,202.50
2019-05-16T08:03:20.041Z,236.25
2019-05-16T08:04:19.919Z,247.50
2019-05-16T08:05:21.089Z,264.38
2019-05-16T08:06:20.089Z,275.62
2019-05-16T08:07:20.089Z,264.38
2019-05-16T08:08:23.335Z,270.00
2019-05-16T08:09:21.116Z,286.88
2019-05-16T08:10:35.864Z,281.25
2019-05-16T08:11:23.521Z,298.12
2019-05-16T08:12:25.515Z,337.50
2019-05-16T08:13:21.323Z,315.00
2019-05-16T08:14:21.274Z,292.50
2019-05-16T08:15:21.231Z,270.00
2019-05-16T08:16:20.747Z,247.50
2019-05-16T08:17:21.662Z,270.00
2019-05-16T08:18:21.472Z,236.25
2019-05-16T08:19:20.328Z,247.50
2019-05-16T08:20:21.398Z,225.00
2019-05-16T08:21:20.235Z,196.88
2019-05-16T08:22:22.187Z,196.88
2019-05-16T08:23:21.896Z,213.75
2019-05-16T08:24:20.519Z,258.75
2019-05-16T08:25:20.374Z,286.88
2019-05-16T08:26:21.995Z,326.25
2019-05-16T08:27:20.828Z,309.38
2019-05-16T08:28:21.483Z,303.75
2019-05-16T08:29:21.992Z,298.12
2019-05-16T08:30:20.964Z,343.12
2019-05-16T08:31:21.463Z,326.25
2019-05-16T08:32:23.063Z,303.75
2019-05-16T08:34:20.918Z,264.38
2019-05-16T08:35:21.133Z,303.75
2019-05-16T08:36:21.010Z,286.88
2019-05-16T08:38:21.463Z,298.12
2019-05-16T08:39:21.458Z,258.75
2019-05-16T08:40:21.371Z,275.62
2019-05-16T08:41:22.149Z,275.62
2019-05-16T08:42:20.970Z,292.50
2019-05-16T08:43:21.780Z,309.38
2019-05-16T08:44:21.530Z,354.38
2019-05-16T08:45:21.199Z,433.12
2019-05-16T08:46:20.747Z,416.25
2019-05-16T08:47:21.292Z,388.12
2019-05-16T08:48:23.095Z,427.50
2019-05-16T08:49:22.153Z,393.75
2019-05-16T08:50:11.556Z,292.50
2019-05-16T08:50:21.664Z,438.75
2019-05-16T08:51:22.348Z,416.25
2019-05-16T08:52:22.432Z,343.12
2019-05-16T08:53:21.604Z,416.25
2019-05-16T08:54:21.412Z,433.12
2019-05-16T08:55:21.752Z,427.50
2019-05-16T08:56:22.043Z,433.12
2019-05-16T08:57:27.557Z,450.00
2019-05-16T08:58:22.543Z,433.12
2019-05-16T08:59:21.461Z,410.62
2019-05-16T09:00:21.783Z,371.25
2019-05-16T09:01:21.650Z,354.38
2019-05-16T09:02:22.115Z,399.38
2019-05-16T09:03:22.217Z,438.75
2019-05-16T09:04:23.890Z,450.00
2019-05-16T09:05:22.706Z,450.00
2019-05-16T09:06:22.589Z,444.38
2019-05-16T09:07:22.752Z,444.38
2019-05-16T09:08:18.868Z,405.00
2019-05-16T09:09:44.065Z,410.62
2019-05-16T09:10:35.110Z,281.25
2019-05-16T09:10:50.027Z,450.00
2019-05-16T09:12:19.825Z,421.88
2019-05-16T09:13:18.812Z,438.75
2019-05-16T09:14:18.785Z,495.00
2019-05-16T09:15:18.812Z,466.88
2019-05-16T09:16:18.763Z,421.88
2019-05-16T09:17:18.754Z,405.00
2019-05-16T09:18:18.766Z,399.38
2019-05-16T09:18:37.937Z,433.12
2019-05-16T09:19:18.732Z,365.62
2019-05-16T09:20:18.750Z,399.38
2019-05-16T09:21:18.731Z,348.75
2019-05-16T09:22:18.700Z,343.12
2019-05-16T09:23:18.707Z,365.62
2019-05-16T09:24:18.679Z,365.62
2019-05-16T09:25:18.845Z,371.25
2019-05-16T09:26:19.781Z,348.75
2019-05-16T09:27:18.701Z,337.50
2019-05-16T09:28:18.685Z,298.12
2019-05-16T09:29:18.621Z,275.62
2019-05-16T09:30:18.611Z,286.88
2019-05-16T09:31:18.603Z,270.00
2019-05-16T09:32:28.325Z,253.12
2019-05-16T09:33:19.592Z,286.88
2019-05-16T09:34:18.569Z,315.00
2019-05-16T09:35:18.587Z,348.75
2019-05-16T09:36:18.538Z,286.88
2019-05-16T09:37:18.566Z,247.50
2019-05-16T09:38:23.503Z,225.00
2019-05-16T09:39:19.528Z,247.50
2019-05-16T09:40:18.493Z,270.00
2019-05-16T09:41:18.486Z,309.38
2019-05-16T09:42:18.474Z,309.38
2019-05-16T09:43:18.467Z,303.75
2019-05-16T09:44:18.668Z,348.75
2019-05-16T09:45:18.511Z,410.62
2019-05-16T09:46:18.435Z,455.62
2019-05-16T09:47:18.425Z,478.12
2019-05-16T09:48:19.135Z,438.75
2019-05-16T09:49:24.141Z,354.38
2019-05-16T09:50:19.390Z,354.38
2019-05-16T09:51:21.250Z,433.12
2019-05-16T09:52:18.368Z,438.75
2019-05-16T09:53:18.369Z,421.88
2019-05-16T09:54:18.389Z,365.62
2019-05-16T09:55:18.334Z,360.00
2019-05-16T09:56:18.367Z,461.25
2019-05-16T09:57:18.351Z,523.12
2019-05-16T09:58:18.736Z,376.88
2019-05-16T09:59:18.307Z,241.88
2019-05-16T10:00:18.285Z,241.88
2019-05-16T10:01:18.267Z,337.50
2019-05-16T10:02:18.294Z,331.88
2019-05-16T10:03:22.477Z,337.50
2019-05-16T10:04:18.266Z,326.25
2019-05-16T10:05:18.226Z,343.12
2019-05-16T10:06:19.199Z,343.12
2019-05-16T10:07:18.237Z,365.62
2019-05-16T10:08:18.188Z,320.62
2019-05-16T10:09:18.204Z,315.00
2019-05-16T10:10:18.172Z,360.00
2019-05-16T10:11:18.412Z,382.50
2019-05-16T10:12:18.776Z,393.75
2019-05-16T10:13:18.523Z,376.88
2019-05-16T10:14:18.186Z,365.62
2019-05-16T10:15:18.130Z,382.50
2019-05-16T10:16:18.132Z,365.62
2019-05-16T10:17:18.100Z,354.38
2019-05-16T10:18:18.103Z,433.12
2019-05-16T10:19:18.089Z,433.12
2019-05-16T10:20:18.062Z,399.38
2019-05-16T10:21:20.669Z,388.12
2019-05-16T10:22:18.100Z,489.38
2019-05-16T10:23:18.268Z,517.50
2019-05-16T10:24:18.064Z,528.75
2019-05-16T10:25:19.564Z,523.12
2019-05-16T10:26:19.424Z,545.62
2019-05-16T10:27:17.984Z,596.25
2019-05-16T10:28:20.017Z,641.25
2019-05-16T10:29:18.622Z,652.50
2019-05-16T10:30:17.980Z,680.62
2019-05-16T10:31:18.080Z,748.12
2019-05-16T10:32:17.937Z,798.75
2019-05-16T10:33:19.200Z,798.75
2019-05-16T10:34:17.907Z,770.62
2019-05-16T10:35:17.918Z,770.62
2019-05-16T10:36:21.609Z,776.25
2019-05-16T10:37:17.927Z,708.75
2019-05-16T10:38:17.876Z,624.38
2019-05-16T10:39:17.850Z,534.38
2019-05-16T10:40:18.354Z,618.75
2019-05-16T10:41:17.838Z,601.88
2019-05-16T10:42:28.119Z,517.50
2019-05-16T10:43:18.807Z,483.75
2019-05-16T10:44:17.848Z,556.88
2019-05-16T10:45:17.800Z,607.50
2019-05-16T10:46:17.956Z,585.00
2019-05-16T10:47:17.769Z,579.38
2019-05-16T10:48:17.818Z,568.12
2019-05-16T10:49:32.805Z,495.00
2019-05-16T10:50:18.787Z,534.38
2019-05-16T10:51:17.724Z,568.12
2019-05-16T10:52:17.746Z,601.88
2019-05-16T10:53:41.840Z,613.12
2019-05-16T10:54:18.989Z,590.62
2019-05-16T10:55:17.953Z,658.12
2019-05-16T10:56:17.686Z,624.38
2019-05-16T10:57:17.713Z,658.12
2019-05-16T10:58:35.052Z,596.25
2019-05-16T10:59:57.917Z,630.00
2019-05-16T11:00:45.877Z,680.62
2019-05-16T11:01:27.084Z,669.38
2019-05-16T11:02:18.800Z,663.75
2019-05-16T11:03:17.591Z,686.25
2019-05-16T11:04:28.631Z,731.25
2019-05-16T11:05:29.971Z,720.00
2019-05-16T11:06:25.905Z,810.00
2019-05-16T11:07:18.551Z,843.75
2019-05-16T11:08:17.539Z,945.00
2019-05-16T11:09:17.561Z,956.25
2019-05-16T11:10:17.561Z,939.38
2019-05-16T11:11:19.865Z,928.12
2019-05-16T11:12:20.450Z,950.62
2019-05-16T11:13:20.332Z,973.12
2019-05-16T11:14:17.583Z,871.88
2019-05-16T11:15:17.480Z,939.38
2019-05-16T11:16:17.542Z,967.50
2019-05-16T11:17:19.080Z,928.12
2019-05-16T11:18:17.661Z,843.75
2019-05-16T11:19:23.661Z,787.50
2019-05-16T11:20:20.068Z,793.12
2019-05-16T11:21:19.323Z,798.75
2019-05-16T11:22:17.385Z,770.62
2019-05-16T11:23:22.907Z,669.38
2019-05-16T11:24:18.425Z,759.38
2019-05-16T11:25:27.954Z,720.00
2019-05-16T11:26:18.342Z,618.75
2019-05-16T11:27:17.329Z,585.00
2019-05-16T11:28:17.842Z,545.62
2019-05-16T11:29:17.309Z,556.88
2019-05-16T11:30:18.198Z,545.62
2019-05-16T11:31:17.725Z,646.88
2019-05-16T11:32:17.270Z,714.38
2019-05-16T11:33:17.610Z,714.38
2019-05-16T11:34:17.478Z,776.25
2019-05-16T11:35:17.449Z,714.38
2019-05-16T11:36:17.242Z,703.12
2019-05-16T11:37:17.794Z,736.88
2019-05-16T11:38:17.921Z,714.38
2019-05-16T11:39:17.461Z,630.00
2019-05-16T11:40:17.917Z,624.38
2019-05-16T11:41:17.204Z,742.50
2019-05-16T11:42:17.656Z,691.88
2019-05-16T11:43:21.033Z,691.88
2019-05-16T11:44:17.749Z,680.62
2019-05-16T11:45:17.142Z,720.00
2019-05-16T11:46:17.134Z,703.12
2019-05-16T11:47:17.125Z,742.50
2019-05-16T11:48:17.338Z,596.25
2019-05-16T11:49:17.118Z,489.38
2019-05-16T11:50:17.870Z,562.50
2019-05-16T11:51:17.527Z,624.38
2019-05-16T11:52:18.070Z,680.62
2019-05-16T11:53:17.647Z,804.38
2019-05-16T11:54:17.043Z,810.00
2019-05-16T11:55:17.033Z,787.50
2019-05-16T11:56:17.021Z,849.38
2019-05-16T11:57:17.938Z,945.00
2019-05-16T11:58:17.933Z,905.62
2019-05-16T11:59:16.978Z,922.50
2019-05-16T12:00:18.169Z,1018.12
2019-05-16T12:01:16.969Z,967.50
2019-05-16T12:02:17.491Z,973.12
2019-05-16T12:03:17.223Z,1040.62
2019-05-16T12:04:17.543Z,905.62
2019-05-16T12:05:17.336Z,1113.75
2019-05-16T12:06:17.224Z,1153.12
2019-05-16T12:07:19.204Z,1237.50
2019-05-16T12:08:17.666Z,1209.38
2019-05-16T12:09:17.806Z,1046.25
2019-05-16T12:10:16.879Z,1029.38
2019-05-16T12:11:17.807Z,1029.38
2019-05-16T12:12:20.495Z,787.50
2019-05-16T12:13:27.632Z,826.88
2019-05-16T12:14:17.816Z,770.62
2019-05-16T12:15:19.809Z,703.12
2019-05-16T12:16:18.789Z,646.88
2019-05-16T12:17:16.805Z,641.25
2019-05-16T12:18:17.450Z,686.25
2019-05-16T12:19:18.238Z,697.50
2019-05-16T12:20:16.821Z,686.25
2019-05-16T12:21:17.230Z,607.50
2019-05-16T12:22:18.339Z,489.38
2019-05-16T12:23:17.264Z,416.25
2019-05-16T12:24:31.853Z,438.75
2019-05-16T12:25:17.704Z,433.12
2019-05-16T12:26:17.527Z,517.50
2019-05-16T12:27:17.230Z,663.75
2019-05-16T12:28:17.012Z,826.88
2019-05-16T12:29:17.331Z,781.88
2019-05-16T12:30:17.654Z,697.50
2019-05-16T12:31:17.427Z,680.62
2019-05-16T12:32:17.070Z,686.25
2019-05-16T12:33:18.858Z,787.50
2019-05-16T12:34:16.598Z,770.62
2019-05-16T12:35:17.657Z,697.50
2019-05-16T12:36:17.606Z,613.12
2019-05-16T12:37:16.574Z,697.50
2019-05-16T12:38:17.237Z,720.00
2019-05-16T12:39:17.242Z,731.25
2019-05-16T12:40:16.526Z,663.75
2019-05-16T12:41:16.543Z,675.00
2019-05-16T12:42:16.526Z,500.62
2019-05-16T12:43:17.985Z,528.75
2019-05-16T12:44:16.503Z,658.12